Airfield :
LOGIN :

Register | Disclaimer

   EN    FR    IT 

 










Legend :    VFR   Marginal VFR   IFR   Intensive IFR   Very Intensive IFR
Visi :
Ceiling :
>= 8 km
>= 3000ft
5 to 8 km
1000 to 3000 ft
1500m to 5 km
500 to 1000 ft
800 to 1500m
200 to 500 ft
< 800m
< 200 ft
Symbols :   Thunderstorms  Fog  Heavy snow  Heavy precipitations  Wind > 20 kt
SIGMETs :     Misc.  Thunderstorms  Icing  Turbulence  Mountain Waves  Volcanic Ashes







- Airport Elevation : 1649 ft
- IATA code : HHN


EDFH - Frankfurt-Hahn Rhineland-Palatinate

CURRENT METAR :
  • 220850Z 25011KT 9999 SCT012 06/05 Q1011

EXPIRED METARs :
  • 220820Z 26010KT 230V290 9999 BKN012 06/05 Q1011
  • 220750Z 25011KT 210V280 9999 BKN011 06/05 Q1011
  • 220720Z 24010KT 190V290 9999 BKN011 06/05 Q1011
  • 220650Z 24012KT 200V270 9999 BKN012 06/05 Q1010
  • 220620Z 24011G22KT 200V260 9999 BKN012 06/05 Q1011

TAF AMD TAF EDFH
Valid from the 22 at 08:00 until the 23 at 06:00 UTC


220817Z 2208/2306 24012KT 9999 BKN015
TEMPO 2208/2210 BKN012
BECMG 2215/2218 18012KT
BECMG 2300/2303 20015G25KT
No reported NOTAMs for that airfield.



MET'MAP, your aeronautical weather chart ! - Copyright ORBIFLY December 2007 - Disclaimer

ORBIFLY MET'MAP TEAM :

Programming & Development : Alexandra Zaïnal
Concept & Development : Baudouin d'Aumeries
Co-Development & Prog : Marc-Olivier Méhu
Technical & hardware support : Manuel Goepfert

Contact : metmap@orbifly.com




SOURCES & CREDITS :

   NOAA